createdAt,value
2023-08-27T00:01:23.795Z,99.90
2023-08-27T00:03:52.884Z,99.90
2023-08-27T00:06:20.124Z,99.90
2023-08-27T00:08:48.041Z,99.90
2023-08-27T00:11:15.701Z,99.90
2023-08-27T00:13:42.890Z,99.90
2023-08-27T00:16:10.565Z,99.90
2023-08-27T00:18:37.791Z,99.90
2023-08-27T00:21:06.284Z,99.90
2023-08-27T00:23:33.785Z,99.90
2023-08-27T00:26:01.031Z,99.90
2023-08-27T00:28:28.476Z,99.90
2023-08-27T00:31:06.999Z,99.90
2023-08-27T00:33:34.467Z,99.90
2023-08-27T00:36:02.191Z,99.90
2023-08-27T00:38:29.503Z,99.90
2023-08-27T00:40:56.975Z,99.90
2023-08-27T00:43:24.337Z,99.90
2023-08-27T00:45:54.524Z,99.90
2023-08-27T00:48:25.027Z,99.90
2023-08-27T00:50:53.089Z,99.90
2023-08-27T00:53:22.465Z,99.90
2023-08-27T00:55:52.138Z,99.90
2023-08-27T00:58:19.480Z,99.90
2023-08-27T01:00:46.808Z,99.90
2023-08-27T01:03:14.261Z,99.90
2023-08-27T01:05:41.572Z,99.90
2023-08-27T01:08:27.528Z,99.90
2023-08-27T01:11:19.412Z,99.90
2023-08-27T01:13:52.289Z,99.90
2023-08-27T01:16:22.287Z,99.90
2023-08-27T01:18:53.281Z,99.90
2023-08-27T01:21:26.724Z,99.90
2023-08-27T01:23:54.173Z,99.90
2023-08-27T01:26:52.320Z,99.90
2023-08-27T01:29:23.162Z,99.90
2023-08-27T01:32:12.486Z,99.90
2023-08-27T01:34:40.222Z,99.90
2023-08-27T01:37:07.448Z,99.90
2023-08-27T01:39:34.742Z,99.90
2023-08-27T01:42:02.104Z,99.90
2023-08-27T01:44:29.327Z,99.90
2023-08-27T01:46:56.675Z,99.90
2023-08-27T01:49:26.902Z,99.90
2023-08-27T01:51:54.131Z,99.90
2023-08-27T01:54:24.586Z,99.90
2023-08-27T01:56:54.841Z,99.90
2023-08-27T01:59:23.143Z,99.90
2023-08-27T02:01:50.452Z,99.90
2023-08-27T02:04:22.429Z,99.90
2023-08-27T02:07:11.321Z,99.90
2023-08-27T02:09:41.440Z,99.90
2023-08-27T02:12:10.388Z,99.90
2023-08-27T02:14:40.299Z,99.90
2023-08-27T02:17:07.880Z,99.90
2023-08-27T02:19:35.063Z,99.90
2023-08-27T02:22:02.968Z,99.90
2023-08-27T02:24:31.001Z,99.90
2023-08-27T02:26:58.232Z,99.90
2023-08-27T02:29:25.477Z,99.90
2023-08-27T02:31:55.890Z,99.90
2023-08-27T02:34:23.285Z,99.90
2023-08-27T02:36:50.465Z,99.90
2023-08-27T02:39:18.301Z,99.90
2023-08-27T02:41:45.524Z,99.90
2023-08-27T02:44:12.927Z,99.90
2023-08-27T02:46:40.282Z,99.90
2023-08-27T02:49:07.576Z,99.90
2023-08-27T02:51:34.745Z,99.90
2023-08-27T02:54:02.564Z,99.90
2023-08-27T02:56:29.851Z,99.90
2023-08-27T02:58:58.902Z,99.90
2023-08-27T03:01:29.014Z,99.90
2023-08-27T03:03:56.480Z,99.90
2023-08-27T03:06:23.851Z,99.90
2023-08-27T03:08:54.758Z,99.90
2023-08-27T03:11:25.446Z,99.90
2023-08-27T03:13:55.244Z,99.90
2023-08-27T03:16:25.671Z,99.90
2023-08-27T03:18:54.448Z,99.90
2023-08-27T03:21:22.948Z,99.90
2023-08-27T03:23:50.517Z,99.90
2023-08-27T03:26:17.613Z,99.90
2023-08-27T03:28:45.538Z,99.90
2023-08-27T03:31:12.927Z,99.90
2023-08-27T03:33:40.523Z,99.90
2023-08-27T03:36:07.726Z,99.90
2023-08-27T03:38:34.945Z,99.90
2023-08-27T03:41:02.273Z,99.90
2023-08-27T03:43:29.390Z,99.90
2023-08-27T03:45:57.150Z,99.90
2023-08-27T03:48:25.108Z,99.90
2023-08-27T03:50:52.849Z,99.90
2023-08-27T03:53:20.057Z,99.90
2023-08-27T03:55:47.765Z,99.90
2023-08-27T03:58:14.940Z,99.90
2023-08-27T04:00:42.709Z,99.90
2023-08-27T04:03:10.066Z,99.90
2023-08-27T04:05:38.945Z,99.90
2023-08-27T04:08:07.831Z,99.90
2023-08-27T04:10:35.343Z,99.90
2023-08-27T04:13:02.843Z,99.90
2023-08-27T04:15:30.328Z,99.90
2023-08-27T04:17:57.814Z,99.90
2023-08-27T04:20:31.551Z,99.90
2023-08-27T04:22:59.173Z,99.90
2023-08-27T04:25:27.073Z,99.90
2023-08-27T04:27:57.840Z,99.90
2023-08-27T04:30:27.793Z,99.90
2023-08-27T04:32:58.431Z,99.90
2023-08-27T04:35:26.117Z,99.90
2023-08-27T04:37:53.420Z,99.90
2023-08-27T04:40:20.625Z,99.90
2023-08-27T04:42:48.321Z,99.90
2023-08-27T04:45:15.808Z,99.90
2023-08-27T04:47:46.017Z,99.90
2023-08-27T04:50:13.438Z,99.90
2023-08-27T04:52:40.714Z,99.90
2023-08-27T04:55:08.197Z,99.90
2023-08-27T04:57:36.207Z,99.90
2023-08-27T05:00:10.728Z,99.90
2023-08-27T05:02:38.633Z,99.90
2023-08-27T05:05:06.300Z,99.90
2023-08-27T05:07:36.380Z,99.90
2023-08-27T05:10:04.092Z,99.90
2023-08-27T05:12:31.348Z,99.90
2023-08-27T05:14:58.673Z,99.90
2023-08-27T05:17:27.017Z,99.90
2023-08-27T05:19:57.232Z,99.90
2023-08-27T05:22:24.937Z,99.90
2023-08-27T05:24:52.482Z,99.90
2023-08-27T05:27:19.708Z,99.90
2023-08-27T05:29:48.153Z,99.90
2023-08-27T05:32:16.006Z,99.90
2023-08-27T05:34:43.244Z,99.90
2023-08-27T05:37:10.490Z,99.90
2023-08-27T05:39:37.797Z,99.90
2023-08-27T05:42:05.419Z,99.90
2023-08-27T05:44:32.573Z,99.90
2023-08-27T05:46:59.980Z,99.90
2023-08-27T05:49:30.688Z,99.90
2023-08-27T05:51:57.991Z,99.90
2023-08-27T05:54:27.740Z,99.90
2023-08-27T05:56:59.620Z,99.90
2023-08-27T05:59:30.190Z,99.90
2023-08-27T06:02:01.479Z,99.90
2023-08-27T06:04:30.364Z,99.90
2023-08-27T06:06:57.962Z,99.90
2023-08-27T06:09:28.176Z,99.90
2023-08-27T06:11:55.443Z,99.90
2023-08-27T06:14:23.431Z,99.90
2023-08-27T06:16:50.890Z,99.90
2023-08-27T06:19:18.220Z,99.90
2023-08-27T06:21:45.688Z,99.90
2023-08-27T06:24:15.729Z,99.90
2023-08-27T06:26:43.048Z,99.90
2023-08-27T06:29:10.365Z,99.90
2023-08-27T06:31:40.643Z,99.90
2023-08-27T06:34:08.154Z,99.90
2023-08-27T06:36:35.542Z,99.90
2023-08-27T06:39:03.272Z,99.90
2023-08-27T06:41:31.379Z,99.90
2023-08-27T06:44:02.405Z,99.90
2023-08-27T06:46:40.742Z,99.90
2023-08-27T06:49:12.188Z,99.90
2023-08-27T06:51:39.584Z,99.90
2023-08-27T06:54:07.087Z,99.90
2023-08-27T06:56:36.919Z,99.90
2023-08-27T06:59:04.389Z,99.90
2023-08-27T07:01:32.222Z,99.90
2023-08-27T07:04:00.490Z,99.90
2023-08-27T07:06:28.095Z,99.90
2023-08-27T07:08:55.716Z,99.90
2023-08-27T07:11:22.911Z,99.90
2023-08-27T07:13:53.589Z,99.90
2023-08-27T07:16:21.137Z,99.90
2023-08-27T07:18:48.511Z,99.90
2023-08-27T07:21:15.960Z,99.90
2023-08-27T07:23:44.901Z,99.90
2023-08-27T07:26:12.824Z,99.90
2023-08-27T07:28:40.187Z,99.90
2023-08-27T07:31:07.570Z,99.90
2023-08-27T07:33:36.173Z,99.90
2023-08-27T07:36:04.330Z,99.90
2023-08-27T07:38:31.602Z,99.90
2023-08-27T07:41:00.517Z,99.90
2023-08-27T07:43:28.308Z,99.90
2023-08-27T07:45:55.508Z,99.90
2023-08-27T07:48:23.044Z,99.90
2023-08-27T07:50:51.222Z,99.90
2023-08-27T07:53:18.447Z,99.90
2023-08-27T07:55:45.826Z,99.90
2023-08-27T07:58:13.253Z,99.90
2023-08-27T08:00:40.660Z,99.90
2023-08-27T08:03:08.241Z,99.90
2023-08-27T08:05:35.818Z,99.90
2023-08-27T08:08:03.285Z,99.90
2023-08-27T08:10:30.635Z,99.90
2023-08-27T08:12:58.335Z,99.90
2023-08-27T08:15:26.170Z,99.90
2023-08-27T08:17:53.938Z,99.90
2023-08-27T08:20:21.406Z,99.90
2023-08-27T08:22:48.568Z,99.90
2023-08-27T08:25:15.725Z,99.90
2023-08-27T08:27:43.051Z,99.90
2023-08-27T08:30:10.710Z,99.90
2023-08-27T08:32:37.989Z,99.90
2023-08-27T08:35:06.237Z,99.90
2023-08-27T08:37:33.571Z,99.90
2023-08-27T08:42:58.282Z,99.90
2023-08-27T08:45:52.550Z,99.90
2023-08-27T08:48:23.444Z,99.90
2023-08-27T08:50:50.947Z,99.90
2023-08-27T08:53:34.488Z,99.90
2023-08-27T08:56:15.649Z,99.90
2023-08-27T08:58:50.587Z,99.90
2023-08-27T09:01:20.833Z,99.90
2023-08-27T09:04:04.187Z,96.60
2023-08-27T09:06:35.625Z,99.90
2023-08-27T09:16:43.290Z,99.30
2023-08-27T09:19:24.913Z,95.30
2023-08-27T09:38:12.790Z,74.40
2023-08-27T09:41:26.036Z,76.50
2023-08-27T09:43:55.580Z,68.90
2023-08-27T09:46:29.837Z,72.80
2023-08-27T09:49:00.722Z,71.90
2023-08-27T09:51:32.658Z,73.60
2023-08-27T09:54:41.426Z,64.10
2023-08-27T09:57:11.961Z,54.10
2023-08-27T09:59:59.965Z,52.30
2023-08-27T10:02:36.870Z,51.10
2023-08-27T10:05:17.209Z,48.40
2023-08-27T10:08:08.098Z,50.70
2023-08-27T10:10:43.194Z,48.90
2023-08-27T10:13:19.070Z,47.70
2023-08-27T10:15:46.881Z,47.30
2023-08-27T10:18:23.593Z,50.70
2023-08-27T10:20:51.194Z,49.40
2023-08-27T10:23:21.675Z,44.20
2023-08-27T10:26:25.954Z,44.30
2023-08-27T10:29:22.265Z,50.60
2023-08-27T10:31:49.832Z,50.60
2023-08-27T10:34:25.112Z,53.20
2023-08-27T10:37:14.687Z,46.20
2023-08-27T10:39:45.410Z,37.30
2023-08-27T10:42:33.922Z,37.50
2023-08-27T10:45:39.017Z,33.00
2023-08-27T10:49:24.929Z,31.20
2023-08-27T10:52:02.504Z,30.10
2023-08-27T10:54:30.391Z,30.20
2023-08-27T10:57:14.465Z,26.50
2023-08-27T10:59:42.813Z,24.20
2023-08-27T11:02:10.593Z,29.20
2023-08-27T11:04:41.670Z,24.20
2023-08-27T11:07:28.813Z,26.30
2023-08-27T11:10:05.646Z,22.30
2023-08-27T11:12:45.565Z,22.00
2023-08-27T11:15:52.205Z,19.30
2023-08-27T11:18:53.374Z,15.00
2023-08-27T11:21:42.058Z,15.80
2023-08-27T11:24:15.322Z,14.10
2023-08-27T11:26:43.191Z,11.90
2023-08-27T11:29:17.179Z,14.40
2023-08-27T11:31:46.271Z,12.70
2023-08-27T11:34:17.501Z,12.70
2023-08-27T11:36:46.592Z,9.10
2023-08-27T11:39:14.462Z,6.60
2023-08-27T11:41:42.691Z,4.20
2023-08-27T11:44:11.683Z,3.90
2023-08-27T11:46:45.472Z,2.60
2023-08-27T11:49:14.877Z,2.80
2023-08-27T11:51:42.725Z,1.00
2023-08-27T11:54:11.796Z,2.10
2023-08-27T11:56:39.205Z,1.00
2023-08-27T11:59:06.773Z,1.00
2023-08-27T12:01:37.150Z,1.00
2023-08-27T12:04:11.693Z,1.00
2023-08-27T12:06:38.854Z,1.00
2023-08-27T12:09:14.960Z,1.00
2023-08-27T12:11:43.127Z,1.00
2023-08-27T12:14:10.299Z,1.00
2023-08-27T12:16:41.663Z,1.00
2023-08-27T12:19:09.969Z,1.00
2023-08-27T12:21:47.791Z,1.00
2023-08-27T12:24:33.352Z,1.00
2023-08-27T12:27:05.025Z,1.00
2023-08-27T12:29:37.114Z,1.00
2023-08-27T12:32:11.426Z,1.00
2023-08-27T12:34:43.559Z,1.00
2023-08-27T12:37:11.651Z,1.00
2023-08-27T12:39:42.909Z,1.00
2023-08-27T12:42:10.698Z,1.00
2023-08-27T12:44:38.202Z,1.00
2023-08-27T12:47:09.551Z,1.00
2023-08-27T12:49:37.250Z,1.00
2023-08-27T12:52:06.467Z,1.00
2023-08-27T12:54:34.901Z,1.00
2023-08-27T12:57:02.310Z,1.00
2023-08-27T12:59:29.741Z,1.00
2023-08-27T13:01:58.313Z,1.00
2023-08-27T13:04:36.490Z,1.00
2023-08-27T13:07:04.027Z,1.00
2023-08-27T13:09:31.314Z,1.00
2023-08-27T13:12:12.528Z,1.00
2023-08-27T13:14:39.948Z,1.00
2023-08-27T13:17:10.711Z,1.00
2023-08-27T13:19:38.194Z,1.00
2023-08-27T13:22:05.979Z,1.00
2023-08-27T13:24:33.215Z,1.00
2023-08-27T13:27:00.785Z,1.00
2023-08-27T13:29:31.623Z,1.00
2023-08-27T13:31:58.981Z,1.00
2023-08-27T13:34:29.228Z,1.00
2023-08-27T13:37:02.996Z,1.00
2023-08-27T13:39:30.508Z,1.00
2023-08-27T13:42:03.574Z,1.00
2023-08-27T13:44:30.967Z,1.00
2023-08-27T13:47:02.313Z,1.00
2023-08-27T13:49:32.339Z,1.00
2023-08-27T13:51:59.410Z,1.00
2023-08-27T13:54:29.048Z,1.00
2023-08-27T13:56:56.668Z,1.00
2023-08-27T13:59:24.032Z,1.00
2023-08-27T14:02:13.536Z,1.00
2023-08-27T14:08:28.532Z,1.00
2023-08-27T14:11:01.024Z,1.00
2023-08-27T14:13:28.838Z,1.00
2023-08-27T14:15:57.865Z,1.00
2023-08-27T14:18:25.214Z,1.00
2023-08-27T14:20:52.463Z,1.00
2023-08-27T14:23:21.775Z,1.00
2023-08-27T14:25:49.157Z,1.00
2023-08-27T14:28:16.458Z,1.00
2023-08-27T14:30:43.934Z,1.00
2023-08-27T14:33:14.013Z,1.00
2023-08-27T14:35:43.558Z,1.00
2023-08-27T14:38:10.980Z,1.00
2023-08-27T14:40:38.815Z,1.00
2023-08-27T14:43:07.248Z,1.00
2023-08-27T14:45:35.492Z,1.00
2023-08-27T14:48:03.505Z,1.00
2023-08-27T14:50:31.582Z,1.00
2023-08-27T14:52:58.848Z,1.00
2023-08-27T14:55:27.539Z,1.00
2023-08-27T14:57:55.150Z,1.00
2023-08-27T15:00:22.723Z,1.00
2023-08-27T15:02:53.159Z,1.00
2023-08-27T15:05:20.448Z,1.00
2023-08-27T15:07:50.838Z,1.00
2023-08-27T15:10:19.752Z,1.00
2023-08-27T15:12:49.331Z,1.00
2023-08-27T15:15:16.967Z,1.00
2023-08-27T15:17:44.566Z,1.00
2023-08-27T15:20:12.258Z,1.00
2023-08-27T15:22:42.423Z,1.00
2023-08-27T15:25:09.742Z,1.00
2023-08-27T15:27:43.294Z,1.00
2023-08-27T15:30:19.503Z,1.00
2023-08-27T15:32:47.413Z,1.00
2023-08-27T15:35:17.477Z,1.00
2023-08-27T15:37:46.029Z,1.00
2023-08-27T15:40:13.451Z,1.00
2023-08-27T15:42:40.722Z,1.00
2023-08-27T15:45:08.857Z,1.00
2023-08-27T15:47:47.002Z,1.00
2023-08-27T15:50:14.196Z,1.00
2023-08-27T15:52:48.715Z,1.00
2023-08-27T15:55:18.666Z,1.00
2023-08-27T15:57:46.608Z,1.00
2023-08-27T16:00:15.700Z,1.00
2023-08-27T16:03:01.045Z,1.00
2023-08-27T16:05:32.136Z,1.00
2023-08-27T16:07:59.932Z,1.00
2023-08-27T16:10:28.591Z,1.00
2023-08-27T16:13:05.720Z,1.00
2023-08-27T16:15:36.062Z,1.00
2023-08-27T16:18:03.643Z,1.00
2023-08-27T16:20:31.291Z,1.00
2023-08-27T16:22:59.508Z,1.00
2023-08-27T16:25:35.235Z,1.00
2023-08-27T16:28:02.975Z,1.00
2023-08-27T16:30:30.589Z,1.00
2023-08-27T16:33:04.305Z,1.00
2023-08-27T16:35:34.814Z,1.00
2023-08-27T16:38:04.977Z,1.00
2023-08-27T16:40:45.475Z,1.00
2023-08-27T16:43:14.274Z,1.00
2023-08-27T16:45:42.114Z,1.00
2023-08-27T16:48:16.869Z,1.00
2023-08-27T16:50:44.354Z,1.00
2023-08-27T16:53:16.206Z,1.00
2023-08-27T16:55:46.008Z,1.00
2023-08-27T16:58:18.821Z,1.00
2023-08-27T17:00:48.942Z,1.00
2023-08-27T17:03:30.170Z,1.00
2023-08-27T17:06:00.724Z,1.00
2023-08-27T17:08:40.705Z,1.00
2023-08-27T17:11:08.492Z,1.00
2023-08-27T17:13:37.139Z,1.00
2023-08-27T17:16:34.585Z,1.00
2023-08-27T17:19:18.198Z,1.00
2023-08-27T17:21:46.132Z,1.00
2023-08-27T17:24:49.469Z,1.00
2023-08-27T17:27:19.497Z,1.00
2023-08-27T17:29:50.068Z,1.00
2023-08-27T17:32:21.993Z,1.00
2023-08-27T17:34:51.209Z,1.00
2023-08-27T17:37:26.038Z,1.00
2023-08-27T17:40:10.214Z,1.00
2023-08-27T17:42:44.791Z,1.00
2023-08-27T17:45:16.475Z,1.00
2023-08-27T17:47:53.148Z,1.00
2023-08-27T17:50:31.846Z,1.00
2023-08-27T17:53:04.891Z,1.00
2023-08-27T17:55:32.341Z,1.00
2023-08-27T17:58:09.451Z,1.00
2023-08-27T18:00:39.748Z,1.00
2023-08-27T18:03:16.101Z,1.00
2023-08-27T18:05:43.898Z,1.00
2023-08-27T18:08:13.755Z,1.00
2023-08-27T18:10:46.814Z,1.00
2023-08-27T18:13:14.372Z,1.00
2023-08-27T18:15:49.546Z,1.00
2023-08-27T18:18:22.363Z,1.00
2023-08-27T18:21:09.182Z,1.00
2023-08-27T18:23:37.059Z,1.00
2023-08-27T18:26:28.219Z,1.00
2023-08-27T18:32:50.258Z,1.00
2023-08-27T18:35:43.853Z,1.00
2023-08-27T18:38:32.165Z,1.00
2023-08-27T18:41:45.088Z,1.00
2023-08-27T18:48:13.449Z,1.00
2023-08-27T18:51:15.639Z,1.00
2023-08-27T18:55:32.824Z,1.00
2023-08-27T18:58:49.408Z,1.00
2023-08-27T19:05:14.183Z,1.00
2023-08-27T19:17:07.748Z,1.00
2023-08-27T19:41:08.460Z,1.00
2023-08-27T20:05:42.978Z,1.00
2023-08-27T20:43:21.239Z,5.30
2023-08-27T20:46:17.670Z,5.90
2023-08-27T20:48:55.830Z,5.70
2023-08-27T20:53:02.880Z,6.00
2023-08-27T21:08:14.255Z,5.70
2023-08-27T21:11:46.724Z,5.80
2023-08-27T21:15:08.662Z,5.10
2023-08-27T21:22:28.330Z,6.20
2023-08-27T21:26:20.694Z,10.90
2023-08-27T21:29:25.002Z,13.80
2023-08-27T21:32:01.272Z,16.30
2023-08-27T21:34:51.462Z,18.00
2023-08-27T21:44:14.236Z,24.60
2023-08-27T21:47:05.233Z,29.50
2023-08-27T21:50:06.416Z,31.00
2023-08-27T21:57:33.784Z,37.80
2023-08-27T22:14:31.379Z,64.30
2023-08-27T22:22:55.488Z,68.70
2023-08-27T22:30:29.205Z,76.70
2023-08-27T22:34:12.345Z,77.10
2023-08-27T23:12:31.847Z,96.10
